sensor_id;sensor_type;location;lat;lon;timestamp;P1;durP1;ratioP1;P2;durP2;ratioP2
22282;SDS011;11310;51.528;21.204;2023-12-28T00:00:51;26.33;;;11.05;;
22282;SDS011;11310;51.528;21.204;2023-12-28T00:03:23;25.88;;;10.88;;
22282;SDS011;11310;51.528;21.204;2023-12-28T00:05:56;24.15;;;10.45;;
22282;SDS011;11310;51.528;21.204;2023-12-28T00:08:24;30.90;;;11.15;;
22282;SDS011;11310;51.528;21.204;2023-12-28T00:10:52;29.58;;;10.60;;
22282;SDS011;11310;51.528;21.204;2023-12-28T00:13:21;26.48;;;10.35;;
22282;SDS011;11310;51.528;21.204;2023-12-28T00:15:49;23.85;;;9.75;;
22282;SDS011;11310;51.528;21.204;2023-12-28T00:18:18;23.90;;;10.52;;
22282;SDS011;11310;51.528;21.204;2023-12-28T00:20:51;24.42;;;10.73;;
22282;SDS011;11310;51.528;21.204;2023-12-28T00:23:19;25.63;;;10.55;;
22282;SDS011;11310;51.528;21.204;2023-12-28T00:25:48;24.08;;;10.13;;
22282;SDS011;11310;51.528;21.204;2023-12-28T00:28:16;23.48;;;11.00;;
22282;SDS011;11310;51.528;21.204;2023-12-28T00:30:46;27.13;;;11.73;;
22282;SDS011;11310;51.528;21.204;2023-12-28T00:33:14;28.10;;;11.88;;
22282;SDS011;11310;51.528;21.204;2023-12-28T00:35:43;28.83;;;11.32;;
22282;SDS011;11310;51.528;21.204;2023-12-28T00:38:13;28.60;;;12.02;;
22282;SDS011;11310;51.528;21.204;2023-12-28T00:40:41;27.80;;;12.48;;
22282;SDS011;11310;51.528;21.204;2023-12-28T00:43:09;30.88;;;11.75;;
22282;SDS011;11310;51.528;21.204;2023-12-28T00:45:38;27.15;;;11.88;;
22282;SDS011;11310;51.528;21.204;2023-12-28T00:48:09;33.45;;;11.32;;
22282;SDS011;11310;51.528;21.204;2023-12-28T00:50:39;32.80;;;11.55;;
22282;SDS011;11310;51.528;21.204;2023-12-28T00:53:07;27.95;;;11.30;;
22282;SDS011;11310;51.528;21.204;2023-12-28T00:55:37;34.95;;;12.75;;
22282;SDS011;11310;51.528;21.204;2023-12-28T00:58:05;31.20;;;11.73;;
22282;SDS011;11310;51.528;21.204;2023-12-28T01:00:34;31.00;;;12.30;;
22282;SDS011;11310;51.528;21.204;2023-12-28T01:03:02;29.75;;;11.35;;
22282;SDS011;11310;51.528;21.204;2023-12-28T01:05:31;31.75;;;11.50;;
22282;SDS011;11310;51.528;21.204;2023-12-28T01:07:59;21.42;;;9.77;;
22282;SDS011;11310;51.528;21.204;2023-12-28T01:10:29;22.70;;;10.43;;
22282;SDS011;11310;51.528;21.204;2023-12-28T01:12:59;24.02;;;10.20;;
22282;SDS011;11310;51.528;21.204;2023-12-28T01:15:27;23.00;;;9.20;;
22282;SDS011;11310;51.528;21.204;2023-12-28T01:17:56;28.60;;;10.55;;
22282;SDS011;11310;51.528;21.204;2023-12-28T01:20:25;28.58;;;10.73;;
22282;SDS011;11310;51.528;21.204;2023-12-28T01:22:53;27.83;;;10.05;;
22282;SDS011;11310;51.528;21.204;2023-12-28T01:25:21;29.55;;;10.60;;
22282;SDS011;11310;51.528;21.204;2023-12-28T01:27:50;19.33;;;9.27;;
22282;SDS011;11310;51.528;21.204;2023-12-28T01:30:23;26.67;;;9.73;;
22282;SDS011;11310;51.528;21.204;2023-12-28T01:32:53;21.65;;;8.57;;
22282;SDS011;11310;51.528;21.204;2023-12-28T01:35:21;21.35;;;9.48;;
22282;SDS011;11310;51.528;21.204;2023-12-28T01:37:50;24.45;;;9.60;;
22282;SDS011;11310;51.528;21.204;2023-12-28T01:40:21;21.15;;;8.07;;
22282;SDS011;11310;51.528;21.204;2023-12-28T01:42:49;22.55;;;8.05;;
22282;SDS011;11310;51.528;21.204;2023-12-28T01:45:19;24.98;;;8.35;;
22282;SDS011;11310;51.528;21.204;2023-12-28T01:47:54;15.05;;;5.68;;
22282;SDS011;11310;51.528;21.204;2023-12-28T01:50:26;21.42;;;8.57;;
22282;SDS011;11310;51.528;21.204;2023-12-28T01:52:57;21.05;;;8.63;;
22282;SDS011;11310;51.528;21.204;2023-12-28T01:55:28;24.05;;;7.88;;
22282;SDS011;11310;51.528;21.204;2023-12-28T01:57:58;19.88;;;7.60;;
22282;SDS011;11310;51.528;21.204;2023-12-28T02:00:28;17.63;;;6.97;;
22282;SDS011;11310;51.528;21.204;2023-12-28T02:03:02;20.75;;;7.05;;
22282;SDS011;11310;51.528;21.204;2023-12-28T02:05:32;21.02;;;8.05;;
22282;SDS011;11310;51.528;21.204;2023-12-28T02:08:01;21.23;;;7.72;;
22282;SDS011;11310;51.528;21.204;2023-12-28T02:10:29;19.30;;;7.07;;
22282;SDS011;11310;51.528;21.204;2023-12-28T02:12:58;19.13;;;7.20;;
22282;SDS011;11310;51.528;21.204;2023-12-28T02:15:29;23.55;;;7.68;;
22282;SDS011;11310;51.528;21.204;2023-12-28T02:17:59;20.75;;;6.70;;
22282;SDS011;11310;51.528;21.204;2023-12-28T02:20:34;16.08;;;7.45;;
22282;SDS011;11310;51.528;21.204;2023-12-28T02:23:03;20.17;;;7.72;;
22282;SDS011;11310;51.528;21.204;2023-12-28T02:25:32;21.65;;;7.50;;
22282;SDS011;11310;51.528;21.204;2023-12-28T02:28:00;17.90;;;7.25;;
22282;SDS011;11310;51.528;21.204;2023-12-28T02:30:30;18.60;;;7.68;;
22282;SDS011;11310;51.528;21.204;2023-12-28T02:33:01;21.92;;;7.38;;
22282;SDS011;11310;51.528;21.204;2023-12-28T02:35:37;22.58;;;8.23;;
22282;SDS011;11310;51.528;21.204;2023-12-28T02:38:13;19.00;;;7.72;;
22282;SDS011;11310;51.528;21.204;2023-12-28T02:40:45;21.67;;;6.97;;
22282;SDS011;11310;51.528;21.204;2023-12-28T02:43:18;20.50;;;7.43;;
22282;SDS011;11310;51.528;21.204;2023-12-28T02:45:46;13.95;;;6.75;;
22282;SDS011;11310;51.528;21.204;2023-12-28T02:48:15;20.30;;;7.70;;
22282;SDS011;11310;51.528;21.204;2023-12-28T02:50:43;20.35;;;7.32;;
22282;SDS011;11310;51.528;21.204;2023-12-28T02:53:12;21.92;;;7.90;;
22282;SDS011;11310;51.528;21.204;2023-12-28T02:55:41;20.35;;;7.15;;
22282;SDS011;11310;51.528;21.204;2023-12-28T02:58:13;19.65;;;6.88;;
22282;SDS011;11310;51.528;21.204;2023-12-28T03:00:42;21.65;;;6.65;;
22282;SDS011;11310;51.528;21.204;2023-12-28T03:03:10;20.55;;;7.28;;
22282;SDS011;11310;51.528;21.204;2023-12-28T03:05:39;16.27;;;6.50;;
22282;SDS011;11310;51.528;21.204;2023-12-28T03:08:09;19.90;;;6.90;;
22282;SDS011;11310;51.528;21.204;2023-12-28T03:10:37;24.45;;;7.35;;
22282;SDS011;11310;51.528;21.204;2023-12-28T03:13:05;20.75;;;7.45;;
22282;SDS011;11310;51.528;21.204;2023-12-28T03:15:35;16.33;;;6.35;;
22282;SDS011;11310;51.528;21.204;2023-12-28T03:18:04;19.65;;;6.88;;
22282;SDS011;11310;51.528;21.204;2023-12-28T03:20:32;18.02;;;6.75;;
22282;SDS011;11310;51.528;21.204;2023-12-28T03:23:01;15.52;;;6.30;;
22282;SDS011;11310;51.528;21.204;2023-12-28T03:25:29;16.58;;;6.32;;
22282;SDS011;11310;51.528;21.204;2023-12-28T03:28:00;21.15;;;6.93;;
22282;SDS011;11310;51.528;21.204;2023-12-28T03:30:29;21.00;;;6.93;;
22282;SDS011;11310;51.528;21.204;2023-12-28T03:33:00;20.38;;;6.53;;
22282;SDS011;11310;51.528;21.204;2023-12-28T03:35:28;23.23;;;7.68;;
22282;SDS011;11310;51.528;21.204;2023-12-28T03:37:56;13.57;;;5.55;;
22282;SDS011;11310;51.528;21.204;2023-12-28T03:40:26;17.38;;;6.80;;
22282;SDS011;11310;51.528;21.204;2023-12-28T03:42:55;19.65;;;6.55;;
22282;SDS011;11310;51.528;21.204;2023-12-28T03:45:24;20.92;;;7.13;;
22282;SDS011;11310;51.528;21.204;2023-12-28T03:47:52;27.23;;;6.65;;
22282;SDS011;11310;51.528;21.204;2023-12-28T03:50:22;22.63;;;7.10;;
22282;SDS011;11310;51.528;21.204;2023-12-28T03:52:52;21.60;;;7.75;;
22282;SDS011;11310;51.528;21.204;2023-12-28T03:55:21;19.20;;;6.80;;
22282;SDS011;11310;51.528;21.204;2023-12-28T03:57:52;18.90;;;7.40;;
22282;SDS011;11310;51.528;21.204;2023-12-28T04:00:21;20.00;;;7.47;;
22282;SDS011;11310;51.528;21.204;2023-12-28T04:02:51;17.75;;;6.85;;
22282;SDS011;11310;51.528;21.204;2023-12-28T04:05:20;20.27;;;8.30;;
22282;SDS011;11310;51.528;21.204;2023-12-28T04:07:50;16.85;;;7.35;;
22282;SDS011;11310;51.528;21.204;2023-12-28T04:10:28;17.55;;;7.40;;
22282;SDS011;11310;51.528;21.204;2023-12-28T04:12:59;22.05;;;7.18;;
22282;SDS011;11310;51.528;21.204;2023-12-28T04:15:29;23.25;;;8.10;;
22282;SDS011;11310;51.528;21.204;2023-12-28T04:17:58;17.98;;;7.05;;
22282;SDS011;11310;51.528;21.204;2023-12-28T04:20:29;19.58;;;7.80;;
22282;SDS011;11310;51.528;21.204;2023-12-28T04:22:58;23.70;;;8.18;;
22282;SDS011;11310;51.528;21.204;2023-12-28T04:25:26;20.13;;;7.93;;
22282;SDS011;11310;51.528;21.204;2023-12-28T04:27:55;21.67;;;7.75;;
22282;SDS011;11310;51.528;21.204;2023-12-28T04:30:24;27.55;;;8.35;;
22282;SDS011;11310;51.528;21.204;2023-12-28T04:32:54;20.42;;;7.95;;
22282;SDS011;11310;51.528;21.204;2023-12-28T04:35:24;18.60;;;7.32;;
22282;SDS011;11310;51.528;21.204;2023-12-28T04:37:52;20.73;;;8.02;;
22282;SDS011;11310;51.528;21.204;2023-12-28T04:40:22;20.63;;;7.82;;
22282;SDS011;11310;51.528;21.204;2023-12-28T04:42:50;19.08;;;7.97;;
22282;SDS011;11310;51.528;21.204;2023-12-28T04:45:19;18.27;;;7.38;;
22282;SDS011;11310;51.528;21.204;2023-12-28T04:47:49;21.95;;;7.35;;
22282;SDS011;11310;51.528;21.204;2023-12-28T04:50:17;21.85;;;8.63;;
22282;SDS011;11310;51.528;21.204;2023-12-28T04:52:46;22.85;;;8.65;;
22282;SDS011;11310;51.528;21.204;2023-12-28T04:55:15;25.00;;;9.38;;
22282;SDS011;11310;51.528;21.204;2023-12-28T04:57:44;24.70;;;8.88;;
22282;SDS011;11310;51.528;21.204;2023-12-28T05:00:13;22.20;;;8.50;;
22282;SDS011;11310;51.528;21.204;2023-12-28T05:02:42;19.73;;;7.35;;
22282;SDS011;11310;51.528;21.204;2023-12-28T05:05:12;22.02;;;8.27;;
22282;SDS011;11310;51.528;21.204;2023-12-28T05:07:40;17.38;;;8.48;;
22282;SDS011;11310;51.528;21.204;2023-12-28T05:10:08;22.73;;;8.40;;
22282;SDS011;11310;51.528;21.204;2023-12-28T05:12:37;25.15;;;9.15;;
22282;SDS011;11310;51.528;21.204;2023-12-28T05:15:12;20.35;;;8.13;;
22282;SDS011;11310;51.528;21.204;2023-12-28T05:17:42;19.75;;;8.70;;
22282;SDS011;11310;51.528;21.204;2023-12-28T05:20:11;22.27;;;8.80;;
22282;SDS011;11310;51.528;21.204;2023-12-28T05:22:41;17.10;;;7.28;;
22282;SDS011;11310;51.528;21.204;2023-12-28T05:25:10;18.40;;;8.25;;
22282;SDS011;11310;51.528;21.204;2023-12-28T05:27:39;19.35;;;7.28;;
22282;SDS011;11310;51.528;21.204;2023-12-28T05:30:09;24.08;;;8.93;;
22282;SDS011;11310;51.528;21.204;2023-12-28T05:32:41;23.95;;;8.93;;
22282;SDS011;11310;51.528;21.204;2023-12-28T05:35:12;19.25;;;8.57;;
22282;SDS011;11310;51.528;21.204;2023-12-28T05:40:10;23.15;;;8.45;;
22282;SDS011;11310;51.528;21.204;2023-12-28T05:42:39;21.33;;;7.32;;
22282;SDS011;11310;51.528;21.204;2023-12-28T05:45:08;28.30;;;8.60;;
22282;SDS011;11310;51.528;21.204;2023-12-28T05:47:41;21.33;;;8.10;;
22282;SDS011;11310;51.528;21.204;2023-12-28T05:50:09;18.95;;;7.85;;
22282;SDS011;11310;51.528;21.204;2023-12-28T05:52:38;17.73;;;7.53;;
22282;SDS011;11310;51.528;21.204;2023-12-28T05:55:06;19.63;;;7.40;;
22282;SDS011;11310;51.528;21.204;2023-12-28T05:57:35;21.60;;;8.80;;
22282;SDS011;11310;51.528;21.204;2023-12-28T06:00:07;23.23;;;7.93;;
22282;SDS011;11310;51.528;21.204;2023-12-28T06:02:41;16.17;;;6.22;;
22282;SDS011;11310;51.528;21.204;2023-12-28T06:05:09;20.92;;;7.28;;
22282;SDS011;11310;51.528;21.204;2023-12-28T06:07:38;17.75;;;6.70;;
22282;SDS011;11310;51.528;21.204;2023-12-28T06:10:08;19.42;;;7.40;;
22282;SDS011;11310;51.528;21.204;2023-12-28T06:12:39;25.17;;;8.57;;
22282;SDS011;11310;51.528;21.204;2023-12-28T06:15:08;17.33;;;7.38;;
22282;SDS011;11310;51.528;21.204;2023-12-28T06:17:38;20.20;;;7.80;;
22282;SDS011;11310;51.528;21.204;2023-12-28T06:20:08;22.75;;;7.85;;
22282;SDS011;11310;51.528;21.204;2023-12-28T06:22:37;21.40;;;7.60;;
22282;SDS011;11310;51.528;21.204;2023-12-28T06:25:06;20.35;;;8.23;;
22282;SDS011;11310;51.528;21.204;2023-12-28T06:27:35;19.83;;;7.55;;
22282;SDS011;11310;51.528;21.204;2023-12-28T06:30:04;20.65;;;8.88;;
22282;SDS011;11310;51.528;21.204;2023-12-28T06:32:40;22.80;;;9.60;;
22282;SDS011;11310;51.528;21.204;2023-12-28T06:35:11;20.77;;;8.75;;
22282;SDS011;11310;51.528;21.204;2023-12-28T06:37:40;23.08;;;8.27;;
22282;SDS011;11310;51.528;21.204;2023-12-28T06:40:10;16.40;;;7.65;;
22282;SDS011;11310;51.528;21.204;2023-12-28T06:42:40;16.83;;;7.18;;
22282;SDS011;11310;51.528;21.204;2023-12-28T06:45:10;15.27;;;6.00;;
22282;SDS011;11310;51.528;21.204;2023-12-28T06:47:39;17.10;;;6.10;;
22282;SDS011;11310;51.528;21.204;2023-12-28T06:50:08;17.80;;;6.63;;
22282;SDS011;11310;51.528;21.204;2023-12-28T06:52:38;13.50;;;6.53;;
22282;SDS011;11310;51.528;21.204;2023-12-28T06:55:08;20.25;;;6.45;;
22282;SDS011;11310;51.528;21.204;2023-12-28T06:57:37;20.60;;;6.60;;
22282;SDS011;11310;51.528;21.204;2023-12-28T07:00:06;16.75;;;6.68;;
22282;SDS011;11310;51.528;21.204;2023-12-28T07:02:38;18.30;;;6.40;;
22282;SDS011;11310;51.528;21.204;2023-12-28T07:05:08;16.90;;;6.70;;
22282;SDS011;11310;51.528;21.204;2023-12-28T07:07:39;19.30;;;6.97;;
22282;SDS011;11310;51.528;21.204;2023-12-28T07:10:08;17.90;;;7.43;;
22282;SDS011;11310;51.528;21.204;2023-12-28T07:12:37;16.98;;;7.22;;
22282;SDS011;11310;51.528;21.204;2023-12-28T07:15:05;21.35;;;9.48;;
22282;SDS011;11310;51.528;21.204;2023-12-28T07:17:36;23.13;;;9.13;;
22282;SDS011;11310;51.528;21.204;2023-12-28T07:20:06;20.98;;;9.10;;
22282;SDS011;11310;51.528;21.204;2023-12-28T07:22:38;19.48;;;7.63;;
22282;SDS011;11310;51.528;21.204;2023-12-28T07:25:08;17.25;;;8.13;;
22282;SDS011;11310;51.528;21.204;2023-12-28T07:27:37;21.95;;;9.10;;
22282;SDS011;11310;51.528;21.204;2023-12-28T07:30:06;22.45;;;6.93;;
22282;SDS011;11310;51.528;21.204;2023-12-28T07:32:35;22.67;;;7.03;;
22282;SDS011;11310;51.528;21.204;2023-12-28T07:35:03;23.05;;;8.50;;
22282;SDS011;11310;51.528;21.204;2023-12-28T07:37:32;26.95;;;10.45;;
22282;SDS011;11310;51.528;21.204;2023-12-28T07:40:04;22.75;;;9.63;;
22282;SDS011;11310;51.528;21.204;2023-12-28T07:42:37;19.02;;;7.47;;
22282;SDS011;11310;51.528;21.204;2023-12-28T07:45:07;18.40;;;8.07;;
22282;SDS011;11310;51.528;21.204;2023-12-28T07:47:36;22.52;;;8.05;;
22282;SDS011;11310;51.528;21.204;2023-12-28T07:50:05;22.55;;;8.27;;
22282;SDS011;11310;51.528;21.204;2023-12-28T07:52:34;22.98;;;8.63;;
22282;SDS011;11310;51.528;21.204;2023-12-28T07:57:36;29.60;;;11.85;;
22282;SDS011;11310;51.528;21.204;2023-12-28T08:00:05;41.63;;;12.98;;
22282;SDS011;11310;51.528;21.204;2023-12-28T08:02:37;38.00;;;15.18;;
22282;SDS011;11310;51.528;21.204;2023-12-28T08:05:05;35.45;;;12.93;;
22282;SDS011;11310;51.528;21.204;2023-12-28T08:07:35;37.20;;;12.70;;
22282;SDS011;11310;51.528;21.204;2023-12-28T08:10:03;47.53;;;14.25;;
22282;SDS011;11310;51.528;21.204;2023-12-28T08:12:34;43.97;;;14.18;;
22282;SDS011;11310;51.528;21.204;2023-12-28T08:15:03;38.30;;;11.68;;
22282;SDS011;11310;51.528;21.204;2023-12-28T08:17:32;50.50;;;15.30;;
22282;SDS011;11310;51.528;21.204;2023-12-28T08:20:04;36.67;;;12.38;;
22282;SDS011;11310;51.528;21.204;2023-12-28T08:22:34;46.25;;;15.13;;
22282;SDS011;11310;51.528;21.204;2023-12-28T08:25:03;37.28;;;13.38;;
22282;SDS011;11310;51.528;21.204;2023-12-28T08:27:35;47.67;;;17.45;;
22282;SDS011;11310;51.528;21.204;2023-12-28T08:30:04;37.75;;;14.07;;
22282;SDS011;11310;51.528;21.204;2023-12-28T08:32:37;34.42;;;12.63;;
22282;SDS011;11310;51.528;21.204;2023-12-28T08:35:06;39.85;;;10.90;;
22282;SDS011;11310;51.528;21.204;2023-12-28T08:37:35;44.53;;;12.63;;
22282;SDS011;11310;51.528;21.204;2023-12-28T08:40:04;16.98;;;7.47;;
22282;SDS011;11310;51.528;21.204;2023-12-28T08:42:40;16.75;;;7.53;;
22282;SDS011;11310;51.528;21.204;2023-12-28T08:45:11;18.23;;;7.70;;
22282;SDS011;11310;51.528;21.204;2023-12-28T08:47:40;17.83;;;7.75;;
22282;SDS011;11310;51.528;21.204;2023-12-28T08:50:09;19.30;;;8.40;;
22282;SDS011;11310;51.528;21.204;2023-12-28T08:52:38;20.85;;;8.10;;
22282;SDS011;11310;51.528;21.204;2023-12-28T08:55:06;23.35;;;8.63;;
22282;SDS011;11310;51.528;21.204;2023-12-28T08:57:36;21.02;;;8.20;;
22282;SDS011;11310;51.528;21.204;2023-12-28T09:00:11;18.05;;;7.85;;
22282;SDS011;11310;51.528;21.204;2023-12-28T09:02:44;19.80;;;7.18;;
22282;SDS011;11310;51.528;21.204;2023-12-28T09:05:12;21.77;;;7.90;;
22282;SDS011;11310;51.528;21.204;2023-12-28T09:07:41;19.33;;;7.38;;
22282;SDS011;11310;51.528;21.204;2023-12-28T09:10:10;21.75;;;7.75;;
22282;SDS011;11310;51.528;21.204;2023-12-28T09:12:40;15.57;;;7.28;;
22282;SDS011;11310;51.528;21.204;2023-12-28T09:15:11;16.33;;;7.03;;
22282;SDS011;11310;51.528;21.204;2023-12-28T09:20:10;18.08;;;6.95;;
22282;SDS011;11310;51.528;21.204;2023-12-28T09:22:39;15.63;;;6.85;;
22282;SDS011;11310;51.528;21.204;2023-12-28T09:25:11;17.95;;;6.60;;
22282;SDS011;11310;51.528;21.204;2023-12-28T09:27:40;16.83;;;6.65;;
22282;SDS011;11310;51.528;21.204;2023-12-28T09:30:08;13.60;;;6.05;;
22282;SDS011;11310;51.528;21.204;2023-12-28T09:32:38;14.82;;;6.22;;
22282;SDS011;11310;51.528;21.204;2023-12-28T09:35:07;13.45;;;5.50;;
22282;SDS011;11310;51.528;21.204;2023-12-28T09:37:36;15.00;;;5.68;;
22282;SDS011;11310;51.528;21.204;2023-12-28T09:40:06;11.63;;;5.32;;
22282;SDS011;11310;51.528;21.204;2023-12-28T09:42:38;14.45;;;5.85;;
22282;SDS011;11310;51.528;21.204;2023-12-28T09:45:10;14.82;;;5.18;;
22282;SDS011;11310;51.528;21.204;2023-12-28T09:47:43;10.95;;;5.10;;
22282;SDS011;11310;51.528;21.204;2023-12-28T09:50:12;12.55;;;5.30;;
22282;SDS011;11310;51.528;21.204;2023-12-28T09:52:42;12.45;;;5.50;;
22282;SDS011;11310;51.528;21.204;2023-12-28T09:55:10;13.35;;;5.35;;
22282;SDS011;11310;51.528;21.204;2023-12-28T09:57:39;12.95;;;5.40;;
22282;SDS011;11310;51.528;21.204;2023-12-28T10:00:09;13.77;;;5.43;;
22282;SDS011;11310;51.528;21.204;2023-12-28T10:02:43;14.15;;;5.45;;
22282;SDS011;11310;51.528;21.204;2023-12-28T10:05:13;12.07;;;4.95;;
22282;SDS011;11310;51.528;21.204;2023-12-28T10:07:42;11.10;;;4.55;;
22282;SDS011;11310;51.528;21.204;2023-12-28T10:10:15;11.85;;;4.60;;
22282;SDS011;11310;51.528;21.204;2023-12-28T10:12:45;12.70;;;4.88;;
22282;SDS011;11310;51.528;21.204;2023-12-28T10:15:15;12.05;;;4.65;;
22282;SDS011;11310;51.528;21.204;2023-12-28T10:17:46;13.18;;;4.97;;
22282;SDS011;11310;51.528;21.204;2023-12-28T10:20:17;11.82;;;4.72;;
22282;SDS011;11310;51.528;21.204;2023-12-28T10:22:50;10.77;;;4.65;;
22282;SDS011;11310;51.528;21.204;2023-12-28T10:25:36;12.32;;;5.00;;
22282;SDS011;11310;51.528;21.204;2023-12-28T10:28:05;8.57;;;3.75;;
22282;SDS011;11310;51.528;21.204;2023-12-28T10:30:34;15.43;;;5.00;;
22282;SDS011;11310;51.528;21.204;2023-12-28T10:33:06;9.45;;;4.03;;
22282;SDS011;11310;51.528;21.204;2023-12-28T10:35:35;12.85;;;4.43;;
22282;SDS011;11310;51.528;21.204;2023-12-28T10:38:05;10.85;;;4.72;;
22282;SDS011;11310;51.528;21.204;2023-12-28T10:40:38;10.30;;;4.20;;
22282;SDS011;11310;51.528;21.204;2023-12-28T10:43:15;10.20;;;4.30;;
22282;SDS011;11310;51.528;21.204;2023-12-28T10:45:46;10.10;;;4.45;;
22282;SDS011;11310;51.528;21.204;2023-12-28T10:48:26;10.27;;;4.10;;
22282;SDS011;11310;51.528;21.204;2023-12-28T10:51:00;12.23;;;4.47;;
22282;SDS011;11310;51.528;21.204;2023-12-28T10:53:33;11.57;;;3.92;;
22282;SDS011;11310;51.528;21.204;2023-12-28T10:56:12;12.80;;;5.25;;
22282;SDS011;11310;51.528;21.204;2023-12-28T10:58:53;9.25;;;4.28;;
22282;SDS011;11310;51.528;21.204;2023-12-28T11:01:32;9.50;;;4.63;;
22282;SDS011;11310;51.528;21.204;2023-12-28T11:04:09;10.77;;;4.05;;
22282;SDS011;11310;51.528;21.204;2023-12-28T11:06:47;12.50;;;4.32;;
22282;SDS011;11310;51.528;21.204;2023-12-28T11:09:19;9.18;;;4.22;;
22282;SDS011;11310;51.528;21.204;2023-12-28T11:11:49;12.05;;;4.28;;
22282;SDS011;11310;51.528;21.204;2023-12-28T11:14:20;12.00;;;4.35;;
22282;SDS011;11310;51.528;21.204;2023-12-28T11:19:22;16.20;;;4.93;;
22282;SDS011;11310;51.528;21.204;2023-12-28T11:21:51;13.40;;;4.95;;
22282;SDS011;11310;51.528;21.204;2023-12-28T11:24:23;12.35;;;5.18;;
22282;SDS011;11310;51.528;21.204;2023-12-28T11:26:55;10.52;;;4.60;;
22282;SDS011;11310;51.528;21.204;2023-12-28T11:29:25;10.48;;;4.18;;
22282;SDS011;11310;51.528;21.204;2023-12-28T11:34:28;10.20;;;4.38;;
22282;SDS011;11310;51.528;21.204;2023-12-28T11:37:02;10.13;;;4.65;;
22282;SDS011;11310;51.528;21.204;2023-12-28T11:39:33;11.45;;;4.28;;
22282;SDS011;11310;51.528;21.204;2023-12-28T11:42:04;10.27;;;4.43;;
22282;SDS011;11310;51.528;21.204;2023-12-28T11:44:36;10.10;;;3.95;;
22282;SDS011;11310;51.528;21.204;2023-12-28T11:47:13;10.48;;;4.07;;
22282;SDS011;11310;51.528;21.204;2023-12-28T11:49:43;9.60;;;4.22;;
22282;SDS011;11310;51.528;21.204;2023-12-28T11:52:22;10.18;;;4.22;;
22282;SDS011;11310;51.528;21.204;2023-12-28T11:54:51;8.95;;;3.50;;
22282;SDS011;11310;51.528;21.204;2023-12-28T11:57:20;11.80;;;4.38;;
22282;SDS011;11310;51.528;21.204;2023-12-28T11:59:55;11.15;;;4.47;;
22282;SDS011;11310;51.528;21.204;2023-12-28T12:02:26;11.25;;;4.50;;
22282;SDS011;11310;51.528;21.204;2023-12-28T12:05:02;11.52;;;3.88;;
22282;SDS011;11310;51.528;21.204;2023-12-28T12:07:32;9.27;;;4.07;;
22282;SDS011;11310;51.528;21.204;2023-12-28T12:10:00;9.25;;;3.45;;
22282;SDS011;11310;51.528;21.204;2023-12-28T12:12:30;13.68;;;4.57;;
22282;SDS011;11310;51.528;21.204;2023-12-28T12:15:02;16.83;;;4.88;;
22282;SDS011;11310;51.528;21.204;2023-12-28T12:17:33;15.43;;;5.73;;
22282;SDS011;11310;51.528;21.204;2023-12-28T12:20:04;12.75;;;4.75;;
22282;SDS011;11310;51.528;21.204;2023-12-28T12:22:37;14.05;;;5.15;;
22282;SDS011;11310;51.528;21.204;2023-12-28T12:25:07;12.25;;;4.65;;
22282;SDS011;11310;51.528;21.204;2023-12-28T12:27:39;13.20;;;4.80;;
22282;SDS011;11310;51.528;21.204;2023-12-28T12:30:08;12.45;;;4.55;;
22282;SDS011;11310;51.528;21.204;2023-12-28T12:32:37;10.73;;;4.00;;
22282;SDS011;11310;51.528;21.204;2023-12-28T12:35:11;10.52;;;3.92;;
22282;SDS011;11310;51.528;21.204;2023-12-28T12:40:11;10.65;;;4.25;;
22282;SDS011;11310;51.528;21.204;2023-12-28T12:42:42;12.93;;;4.97;;
22282;SDS011;11310;51.528;21.204;2023-12-28T12:45:19;12.07;;;4.80;;
22282;SDS011;11310;51.528;21.204;2023-12-28T12:47:57;13.60;;;5.22;;
22282;SDS011;11310;51.528;21.204;2023-12-28T12:50:31;11.25;;;4.82;;
22282;SDS011;11310;51.528;21.204;2023-12-28T12:53:00;15.85;;;4.30;;
22282;SDS011;11310;51.528;21.204;2023-12-28T12:55:33;11.73;;;4.32;;
22282;SDS011;11310;51.528;21.204;2023-12-28T12:58:02;12.93;;;4.90;;
22282;SDS011;11310;51.528;21.204;2023-12-28T13:00:32;9.95;;;4.88;;
22282;SDS011;11310;51.528;21.204;2023-12-28T13:03:01;10.15;;;3.88;;
22282;SDS011;11310;51.528;21.204;2023-12-28T13:05:32;44.75;;;13.48;;
22282;SDS011;11310;51.528;21.204;2023-12-28T13:08:03;44.40;;;14.85;;
22282;SDS011;11310;51.528;21.204;2023-12-28T13:10:32;20.30;;;8.52;;
22282;SDS011;11310;51.528;21.204;2023-12-28T13:13:06;20.98;;;7.40;;
22282;SDS011;11310;51.528;21.204;2023-12-28T13:15:36;25.25;;;9.52;;
22282;SDS011;11310;51.528;21.204;2023-12-28T13:18:06;31.00;;;9.30;;
22282;SDS011;11310;51.528;21.204;2023-12-28T13:20:37;15.65;;;6.40;;
22282;SDS011;11310;51.528;21.204;2023-12-28T13:23:05;14.38;;;6.03;;
22282;SDS011;11310;51.528;21.204;2023-12-28T13:25:34;14.30;;;5.90;;
22282;SDS011;11310;51.528;21.204;2023-12-28T13:28:04;13.98;;;5.55;;
22282;SDS011;11310;51.528;21.204;2023-12-28T13:30:32;15.45;;;5.75;;
22282;SDS011;11310;51.528;21.204;2023-12-28T13:33:00;14.70;;;5.85;;
22282;SDS011;11310;51.528;21.204;2023-12-28T13:35:29;20.92;;;8.85;;
22282;SDS011;11310;51.528;21.204;2023-12-28T13:38:01;18.33;;;7.22;;
22282;SDS011;11310;51.528;21.204;2023-12-28T13:40:30;32.15;;;11.88;;
22282;SDS011;11310;51.528;21.204;2023-12-28T13:43:00;25.75;;;10.55;;
22282;SDS011;11310;51.528;21.204;2023-12-28T13:45:31;19.03;;;7.80;;
22282;SDS011;11310;51.528;21.204;2023-12-28T13:48:00;16.55;;;6.18;;
22282;SDS011;11310;51.528;21.204;2023-12-28T13:50:29;11.05;;;5.00;;
22282;SDS011;11310;51.528;21.204;2023-12-28T13:52:59;10.27;;;4.35;;
22282;SDS011;11310;51.528;21.204;2023-12-28T13:55:32;15.40;;;5.05;;
22282;SDS011;11310;51.528;21.204;2023-12-28T13:58:02;12.95;;;4.55;;
22282;SDS011;11310;51.528;21.204;2023-12-28T14:00:31;10.67;;;4.23;;
22282;SDS011;11310;51.528;21.204;2023-12-28T14:03:00;16.42;;;5.78;;
22282;SDS011;11310;51.528;21.204;2023-12-28T14:05:30;85.63;;;26.48;;
22282;SDS011;11310;51.528;21.204;2023-12-28T14:08:02;44.67;;;17.30;;
22282;SDS011;11310;51.528;21.204;2023-12-28T14:10:37;22.35;;;8.82;;
22282;SDS011;11310;51.528;21.204;2023-12-28T14:13:06;12.80;;;5.82;;
22282;SDS011;11310;51.528;21.204;2023-12-28T14:15:34;15.77;;;5.32;;
22282;SDS011;11310;51.528;21.204;2023-12-28T14:18:04;11.02;;;5.00;;
22282;SDS011;11310;51.528;21.204;2023-12-28T14:20:34;10.48;;;4.93;;
22282;SDS011;11310;51.528;21.204;2023-12-28T14:23:02;13.05;;;4.75;;
22282;SDS011;11310;51.528;21.204;2023-12-28T14:25:35;11.38;;;4.88;;
22282;SDS011;11310;51.528;21.204;2023-12-28T14:28:18;13.40;;;5.50;;
22282;SDS011;11310;51.528;21.204;2023-12-28T14:30:47;10.60;;;4.38;;
22282;SDS011;11310;51.528;21.204;2023-12-28T14:33:17;13.30;;;5.10;;
22282;SDS011;11310;51.528;21.204;2023-12-28T14:35:49;56.88;;;18.40;;
22282;SDS011;11310;51.528;21.204;2023-12-28T14:38:20;74.57;;;27.10;;
22282;SDS011;11310;51.528;21.204;2023-12-28T14:40:50;43.67;;;16.73;;
22282;SDS011;11310;51.528;21.204;2023-12-28T14:43:19;28.00;;;12.25;;
22282;SDS011;11310;51.528;21.204;2023-12-28T14:45:47;25.27;;;11.52;;
22282;SDS011;11310;51.528;21.204;2023-12-28T14:48:16;21.50;;;10.38;;
22282;SDS011;11310;51.528;21.204;2023-12-28T14:50:44;15.93;;;7.05;;